Time;durP1;ratioP1;P1;durP2;ratioP2;P2;SDS_P1;SDS_P2;PMS_P1;PMS_P2;Temp;Humidity;BMP_temperature;BMP_pressure;BME280_temperature;BME280_humidity;BME280_pressure;Samples;Min_cycle;Max_cycle;Signal;HPM_P1;HPM_P2
2022/09/01 00:02:28;;;;;;;;;;;;;;;18.59;75.99;102099.00;4954536;28;19961;-62
2022/09/01 00:04:57;;;;;;;;;;;;;;;18.56;75.88;102100.19;4953447;28;19926;-63
2022/09/01 00:07:25;;;;;;;;;;;;;;;18.54;78.38;102103.97;4948328;28;20651;-62
2022/09/01 00:09:51;;;;;;;;;;;;;;;18.54;77.39;102104.84;4962528;28;19934;-62
2022/09/01 00:12:21;;;;;;;;;;;;;;;18.54;78.23;102101.31;4948609;28;20296;-63
2022/09/01 00:14:47;;;;;;;;;;;;;;;18.50;77.36;102102.66;4964927;28;19933;-63
2022/09/01 00:17:14;;;;;;;;;;;;;;;18.44;78.31;102098.84;4947446;28;19936;-63
2022/09/01 00:19:40;;;;;;;;;;;;;;;18.38;79.35;102100.38;4962557;28;19941;-61
2022/09/01 00:22:07;;;;;;;;;;;;;;;18.36;79.57;102099.66;4961208;28;19953;-63
2022/09/01 00:24:34;;;;;;;;;;;;;;;18.32;77.31;102102.84;4955662;28;19932;-63
2022/09/01 00:27:01;;;;;;;;;;;;;;;18.25;80.55;102102.69;4960632;28;19940;-63
2022/09/01 00:29:27;;;;;;;;;;;;;;;18.21;80.54;102105.81;4948869;28;20453;-63
2022/09/01 00:31:54;;;;;;;;;;;;;;;18.11;81.22;102100.66;4960400;28;19926;-61
2022/09/01 00:34:20;;;;;;;;;;;;;;;18.07;80.42;102102.84;4958185;28;19936;-63
2022/09/01 00:36:47;;;;;;;;;;;;;;;18.05;80.60;102103.97;4956582;28;20020;-63
2022/09/01 00:39:14;;;;;;;;;;;;;;;17.96;82.46;102105.81;4962328;28;19926;-62
2022/09/01 00:41:43;;;;;;;;;;;;;;;17.98;79.82;102106.47;4951429;28;19949;-63
2022/09/01 00:44:12;;;;;;;;;;;;;;;17.98;80.30;102103.81;4960555;28;19926;-62
2022/09/01 00:46:44;;;;;;;;;;;;;;;17.98;81.31;102095.84;4955510;28;19936;-62
2022/09/01 00:49:31;;;;;;;;;;;;;;;17.98;81.44;102095.84;4966208;28;20333;-63
2022/09/01 00:52:05;;;;;;;;;;;;;;;17.91;81.99;102093.00;4946825;28;19969;-62
2022/09/01 00:54:34;;;;;;;;;;;;;;;17.96;81.30;102096.00;4961061;28;19926;-62
2022/09/01 00:57:03;;;;;;;;;;;;;;;17.94;81.28;102089.22;4949923;28;20234;-63
2022/09/01 00:59:29;;;;;;;;;;;;;;;17.89;81.74;102096.84;4955668;28;19937;-61
2022/09/01 01:01:57;;;;;;;;;;;;;;;17.86;81.37;102092.69;4961251;28;19936;-62
2022/09/01 01:04:24;;;;;;;;;;;;;;;17.81;82.90;102092.31;4954868;28;19984;-62
2022/09/01 01:06:57;;;;;;;;;;;;;;;17.82;81.81;102088.69;4956088;28;19926;-62
2022/09/01 01:09:24;;;;;;;;;;;;;;;17.79;83.23;102089.00;4958056;28;19992;-62
2022/09/01 01:11:51;;;;;;;;;;;;;;;17.77;81.68;102086.50;4960840;28;19941;-61
2022/09/01 01:14:18;;;;;;;;;;;;;;;17.73;82.65;102084.34;4952605;28;19949;-62
2022/09/01 01:16:49;;;;;;;;;;;;;;;17.71;83.59;102084.50;4962030;28;19936;-61
2022/09/01 01:23:01;;;;;;;;;;;;;;;17.68;83.34;102089.28;4965922;28;20177;-62
2022/09/01 01:25:03;;;;;;;;;;;;;;;17.66;83.16;102088.63;4954958;28;19945;-63
2022/09/01 01:27:31;;;;;;;;;;;;;;;17.64;83.32;102086.16;4953562;28;19926;-61
2022/09/01 01:30:08;;;;;;;;;;;;;;;17.63;83.24;102081.00;4964522;28;19933;-61
2022/09/01 01:32:35;;;;;;;;;;;;;;;17.60;82.65;102082.13;4952970;28;19926;-62
2022/09/01 01:35:04;;;;;;;;;;;;;;;17.62;82.58;102084.63;4958776;28;19941;-61
2022/09/01 01:37:34;;;;;;;;;;;;;;;17.64;82.56;102082.66;4957095;28;20289;-61
2022/09/01 01:40:01;;;;;;;;;;;;;;;17.59;84.15;102086.63;4961632;28;19937;-63
2022/09/01 01:42:28;;;;;;;;;;;;;;;17.61;82.80;102083.00;4961310;28;19930;-62
2022/09/01 01:44:54;;;;;;;;;;;;;;;17.65;82.53;102084.31;4957922;28;19933;-62
2022/09/01 01:47:21;;;;;;;;;;;;;;;17.62;82.79;102081.97;4950777;28;19926;-61
2022/09/01 01:49:47;;;;;;;;;;;;;;;17.59;81.15;102086.63;4941953;28;20468;-62
2022/09/01 01:52:16;;;;;;;;;;;;;;;17.61;82.14;102088.28;4951316;28;19934;-62
2022/09/01 01:54:44;;;;;;;;;;;;;;;17.58;82.50;102084.97;4942636;28;19926;-62
2022/09/01 01:57:15;;;;;;;;;;;;;;;17.55;82.62;102095.06;4956052;28;19934;-63
2022/09/01 01:59:42;;;;;;;;;;;;;;;17.55;82.80;102089.78;4958672;28;19936;-62
2022/09/01 02:02:11;;;;;;;;;;;;;;;17.54;82.47;102088.94;4952724;28;19941;-62
2022/09/01 02:04:39;;;;;;;;;;;;;;;17.58;82.14;102092.09;4954333;28;19937;-62
2022/09/01 02:07:10;;;;;;;;;;;;;;;17.67;78.85;102088.47;4942544;28;20400;-62
2022/09/01 02:09:39;;;;;;;;;;;;;;;17.74;78.59;102088.66;4959325;28;19930;-62
2022/09/01 02:12:06;;;;;;;;;;;;;;;17.73;79.78;102082.50;4948865;28;19934;-62
2022/09/01 02:14:33;;;;;;;;;;;;;;;17.71;80.00;102089.78;4964930;28;19942;-62
2022/09/01 02:17:05;;;;;;;;;;;;;;;17.68;80.71;102089.28;4952923;28;19930;-63
2022/09/01 02:19:35;;;;;;;;;;;;;;;17.63;80.00;102092.44;4949900;28;19934;-62
2022/09/01 02:22:01;;;;;;;;;;;;;;;17.63;80.58;102086.31;4949433;28;19949;-62
2022/09/01 02:24:30;;;;;;;;;;;;;;;17.59;80.54;102088.44;4950879;28;19931;-63
2022/09/01 02:26:59;;;;;;;;;;;;;;;17.54;81.36;102088.09;4957079;28;20401;-62
2022/09/01 02:29:27;;;;;;;;;;;;;;;17.50;80.34;102098.19;4947202;28;19930;-61
2022/09/01 02:31:54;;;;;;;;;;;;;;;17.54;79.73;102091.59;4959954;28;19981;-62
2022/09/01 02:34:22;;;;;;;;;;;;;;;17.50;80.99;102089.41;4950779;28;19937;-61
2022/09/01 02:36:50;;;;;;;;;;;;;;;17.50;79.10;102090.22;4944231;28;20064;-62
2022/09/01 02:39:19;;;;;;;;;;;;;;;17.44;81.06;102098.84;4952986;28;21206;-62
2022/09/01 02:41:45;;;;;;;;;;;;;;;17.47;80.08;102093.22;4948617;28;19927;-61
2022/09/01 02:44:13;;;;;;;;;;;;;;;17.48;80.86;102094.03;4954803;28;19972;-62
2022/09/01 02:46:41;;;;;;;;;;;;;;;17.36;81.50;102093.50;4949774;28;19941;-62
2022/09/01 02:49:14;;;;;;;;;;;;;;;17.27;82.18;102092.66;4946936;28;19927;-62
2022/09/01 02:51:41;;;;;;;;;;;;;;;17.25;81.77;102085.84;4940080;28;19977;-62
2022/09/01 02:54:08;;;;;;;;;;;;;;;17.24;81.89;102089.50;4949997;28;19933;-62
2022/09/01 02:56:35;;;;;;;;;;;;;;;17.22;81.51;102084.34;4962533;28;20392;-62
2022/09/01 02:59:02;;;;;;;;;;;;;;;17.23;80.93;102085.16;4941193;28;19934;-62
2022/09/01 03:01:29;;;;;;;;;;;;;;;17.17;81.53;102086.63;4958398;28;20417;-62
2022/09/01 03:03:57;;;;;;;;;;;;;;;17.14;81.60;102087.78;4942713;28;19937;-62
2022/09/01 03:06:24;;;;;;;;;;;;;;;17.14;81.30;102079.84;4951779;28;19940;-62
2022/09/01 03:08:52;;;;;;;;;;;;;;;17.19;81.04;102079.38;4957367;28;19942;-62
2022/09/01 03:11:19;;;;;;;;;;;;;;;17.16;81.27;102085.81;4955131;28;19930;-62
2022/09/01 03:13:45;;;;;;;;;;;;;;;17.16;80.13;102083.16;4959417;28;20576;-62
2022/09/01 03:16:12;;;;;;;;;;;;;;;17.13;81.05;102091.44;4957219;28;19926;-61
2022/09/01 03:18:38;;;;;;;;;;;;;;;17.13;80.89;102091.44;4955492;28;19989;-62
2022/09/01 03:21:07;;;;;;;;;;;;;;;17.08;81.54;102091.06;4940884;28;19934;-62
2022/09/01 03:23:33;;;;;;;;;;;;;;;17.07;81.01;102089.44;4949543;28;19954;-62
2022/09/01 03:26:00;;;;;;;;;;;;;;;17.06;81.55;102092.22;4948506;28;20514;-62
2022/09/01 03:28:27;;;;;;;;;;;;;;;17.05;81.20;102090.56;4948299;28;19938;-63
2022/09/01 03:30:54;;;;;;;;;;;;;;;17.04;81.03;102092.38;4960166;28;19926;-61
2022/09/01 03:33:22;;;;;;;;;;;;;;;17.04;80.99;102095.03;4937155;28;19946;-61
2022/09/01 03:35:49;;;;;;;;;;;;;;;17.00;81.04;102094.50;4952443;28;20235;-63
2022/09/01 03:38:23;;;;;;;;;;;;;;;17.00;80.38;102097.16;4943864;28;19930;-62
2022/09/01 03:40:51;;;;;;;;;;;;;;;16.95;81.31;102090.66;4949044;28;19937;-62
2022/09/01 03:43:18;;;;;;;;;;;;;;;16.90;80.91;102090.34;4947419;28;20306;-62
2022/09/01 03:45:45;;;;;;;;;;;;;;;16.88;81.50;102092.31;4950784;28;19973;-62
2022/09/01 03:48:15;;;;;;;;;;;;;;;16.82;81.82;102095.56;4943344;28;20611;-62
2022/09/01 03:50:45;;;;;;;;;;;;;;;16.78;81.74;102093.22;4946016;28;19972;-63
2022/09/01 03:53:16;;;;;;;;;;;;;;;16.74;81.80;102086.56;4957783;28;19950;-62
2022/09/01 03:55:43;;;;;;;;;;;;;;;16.71;82.08;102096.63;4946882;28;19931;-62
2022/09/01 03:58:13;;;;;;;;;;;;;;;16.70;82.12;102090.50;4961588;28;19930;-62
2022/09/01 04:00:42;;;;;;;;;;;;;;;16.67;81.42;102090.00;4946866;28;19937;-62
2022/09/01 04:03:19;;;;;;;;;;;;;;;16.63;82.33;102083.34;4953746;28;19926;-61
2022/09/01 04:05:55;;;;;;;;;;;;;;;16.67;81.99;102084.69;4953384;28;19933;-61
2022/09/01 04:08:26;;;;;;;;;;;;;;;16.63;81.59;102086.81;4952172;28;19933;-62
2022/09/01 04:10:59;;;;;;;;;;;;;;;16.57;82.96;102082.97;4953841;28;19930;-62
2022/09/01 04:13:29;;;;;;;;;;;;;;;16.58;82.02;102075.84;4941216;28;19930;-62
2022/09/01 04:15:56;;;;;;;;;;;;;;;16.59;81.57;102080.16;4953455;28;19930;-62
2022/09/01 04:18:23;;;;;;;;;;;;;;;16.54;81.94;102082.44;4945931;28;19930;-62
2022/09/01 04:20:51;;;;;;;;;;;;;;;16.50;82.48;102073.97;4961217;28;19930;-62
2022/09/01 04:23:28;;;;;;;;;;;;;;;16.47;82.36;102076.94;4951366;28;19930;-62
2022/09/01 04:25:58;;;;;;;;;;;;;;;16.46;82.75;102082.38;4951461;28;19965;-62
2022/09/01 04:28:29;;;;;;;;;;;;;;;16.43;83.02;102078.25;4942795;28;19926;-62
2022/09/01 04:30:57;;;;;;;;;;;;;;;16.39;83.44;102077.72;4951323;28;19930;-62
2022/09/01 04:33:24;;;;;;;;;;;;;;;16.40;82.79;102076.72;4954805;28;19930;-62
2022/09/01 04:35:53;;;;;;;;;;;;;;;16.39;82.81;102079.53;4950263;28;20363;-62
2022/09/01 04:38:20;;;;;;;;;;;;;;;16.40;82.72;102081.19;4956924;28;19931;-63
2022/09/01 04:40:48;;;;;;;;;;;;;;;16.37;83.24;102079.69;4948010;28;20145;-62
2022/09/01 04:43:15;;;;;;;;;;;;;;;16.39;83.24;102079.53;4950296;28;19934;-62
2022/09/01 04:45:43;;;;;;;;;;;;;;;16.37;82.54;102070.91;4949638;28;19932;-62
2022/09/01 04:48:09;;;;;;;;;;;;;;;16.39;82.66;102085.66;4939745;28;19930;-62
2022/09/01 04:50:39;;;;;;;;;;;;;;;16.37;82.48;102076.22;4960730;28;19934;-62
2022/09/01 04:53:06;;;;;;;;;;;;;;;16.34;83.05;102079.97;4943859;28;19937;-62
2022/09/01 04:55:32;;;;;;;;;;;;;;;16.32;82.85;102084.59;4951493;28;19971;-64
2022/09/01 04:57:59;;;;;;;;;;;;;;;16.30;83.33;102086.56;4945317;28;19930;-62
2022/09/01 05:00:30;;;;;;;;;;;;;;;16.31;82.50;102082.13;4955962;28;19936;-63
2022/09/01 05:03:03;;;;;;;;;;;;;;;16.27;83.08;102081.59;4956398;28;20642;-62
2022/09/01 05:05:41;;;;;;;;;;;;;;;16.26;83.09;102087.84;4945222;28;20383;-62
2022/09/01 05:08:12;;;;;;;;;;;;;;;16.22;83.26;102081.22;4956456;28;19930;-62
2022/09/01 05:10:51;;;;;;;;;;;;;;;16.20;83.23;102088.47;4935242;28;19957;-63
2022/09/01 05:13:18;;;;;;;;;;;;;;;16.15;83.59;102085.44;4946548;28;20750;-61
2022/09/01 05:15:46;;;;;;;;;;;;;;;16.17;82.93;102086.97;4942298;28;19941;-62
2022/09/01 05:18:12;;;;;;;;;;;;;;;16.16;83.20;102085.28;4946792;28;19937;-64
2022/09/01 05:20:40;;;;;;;;;;;;;;;16.19;83.19;102089.44;4943736;28;19930;-62
2022/09/01 05:23:11;;;;;;;;;;;;;;;16.16;83.19;102097.72;4957848;28;19937;-62
2022/09/01 05:25:39;;;;;;;;;;;;;;;16.14;83.72;102091.72;4947005;28;19965;-61
2022/09/01 05:28:06;;;;;;;;;;;;;;;16.10;83.77;102101.78;4946188;28;20484;-62
2022/09/01 05:30:35;;;;;;;;;;;;;;;16.10;83.60;102100.97;4954075;28;19934;-62
2022/09/01 05:33:01;;;;;;;;;;;;;;;16.02;84.83;102099.91;4940645;28;19931;-61
2022/09/01 05:35:28;;;;;;;;;;;;;;;16.05;83.04;102101.41;4951597;28;19934;-62
2022/09/01 05:37:58;;;;;;;;;;;;;;;15.99;85.11;102104.66;4943489;28;20036;-61
2022/09/01 05:40:24;;;;;;;;;;;;;;;15.98;85.27;102110.94;4952257;28;20017;-62
2022/09/01 05:42:54;;;;;;;;;;;;;;;15.98;83.49;102103.00;4951612;28;20383;-62
2022/09/01 05:45:23;;;;;;;;;;;;;;;15.99;83.98;102109.94;4946776;28;19930;-62
2022/09/01 05:47:51;;;;;;;;;;;;;;;15.99;84.08;102105.50;4945182;28;19926;-62
2022/09/01 05:50:18;;;;;;;;;;;;;;;16.00;84.79;102112.44;4941499;28;20515;-62
2022/09/01 05:52:46;;;;;;;;;;;;;;;16.01;84.21;102115.91;4949274;28;19958;-62
2022/09/01 05:55:14;;;;;;;;;;;;;;;16.03;82.44;102116.59;4944070;28;20370;-62
2022/09/01 05:57:41;;;;;;;;;;;;;;;16.06;83.74;102107.53;4956133;28;20580;-62
2022/09/01 06:00:12;;;;;;;;;;;;;;;16.03;84.03;102116.59;4947190;28;19930;-62
2022/09/01 06:02:41;;;;;;;;;;;;;;;16.05;84.64;102114.63;4945708;28;20343;-62
2022/09/01 06:05:09;;;;;;;;;;;;;;;16.06;84.16;102115.50;4947194;28;20024;-62
2022/09/01 06:07:39;;;;;;;;;;;;;;;16.10;83.56;102116.84;4944366;28;19945;-62
2022/09/01 06:10:06;;;;;;;;;;;;;;;16.10;85.23;102125.59;4960215;28;19938;-62
2022/09/01 06:12:32;;;;;;;;;;;;;;;16.09;84.65;102118.66;4953324;28;20443;-62
2022/09/01 06:15:00;;;;;;;;;;;;;;;16.07;85.66;102120.59;4959310;28;19930;-62
2022/09/01 06:17:27;;;;;;;;;;;;;;;16.10;85.41;102117.66;4947370;28;19995;-62
2022/09/01 06:19:55;;;;;;;;;;;;;;;16.10;85.09;102115.03;4947581;28;19986;-62
2022/09/01 06:22:22;;;;;;;;;;;;;;;16.14;84.28;102120.84;4956428;28;19927;-62
2022/09/01 06:24:50;;;;;;;;;;;;;;;16.16;84.24;102119.72;4952113;28;19930;-62
2022/09/01 06:27:26;;;;;;;;;;;;;;;16.20;83.67;102118.41;4959730;28;20033;-62
2022/09/01 06:29:53;;;;;;;;;;;;;;;16.24;83.73;102116.31;4939459;28;19926;-62
2022/09/01 06:32:20;;;;;;;;;;;;;;;16.25;83.58;102122.41;4950575;28;19945;-62
2022/09/01 06:34:50;;;;;;;;;;;;;;;16.28;83.69;102128.25;4953517;28;19941;-62
2022/09/01 06:37:21;;;;;;;;;;;;;;;16.30;83.63;102120.16;4951295;28;19966;-62
2022/09/01 06:39:48;;;;;;;;;;;;;;;16.29;84.45;102127.28;4959282;28;20302;-62
2022/09/01 06:42:16;;;;;;;;;;;;;;;16.33;83.37;102127.81;4951908;28;19930;-62
2022/09/01 06:44:42;;;;;;;;;;;;;;;16.38;82.82;102129.00;4952257;28;20383;-62
2022/09/01 06:47:08;;;;;;;;;;;;;;;16.47;83.26;102126.44;4941486;28;19937;-62
2022/09/01 06:49:35;;;;;;;;;;;;;;;16.56;82.16;102134.28;4956265;28;19933;-62
2022/09/01 06:52:03;;;;;;;;;;;;;;;16.64;78.94;102138.81;4953094;28;19930;-62
2022/09/01 06:54:33;;;;;;;;;;;;;;;16.80;76.23;102130.16;4955042;28;19930;-62
2022/09/01 06:57:02;;;;;;;;;;;;;;;16.84;76.22;102139.47;4954424;28;20374;-62
2022/09/01 06:59:49;;;;;;;;;;;;;;;16.92;77.41;102141.34;4941629;28;20363;-61
2022/09/01 07:02:18;;;;;;;;;;;;;;;16.90;78.20;102125.59;4949859;28;20041;-62
2022/09/01 07:04:50;;;;;;;;;;;;;;;16.95;75.41;102133.91;4948916;28;19929;-62
2022/09/01 07:07:17;;;;;;;;;;;;;;;16.99;77.18;102132.63;4951533;28;19935;-62
2022/09/01 07:10:04;;;;;;;;;;;;;;;17.08;76.53;102133.50;4948890;28;19935;-62
2022/09/01 07:12:46;;;;;;;;;;;;;;;17.22;77.65;102137.38;4948693;28;19934;-62
2022/09/01 07:15:37;;;;;;;;;;;;;;;17.35;74.87;102132.47;4945071;28;19942;-62
2022/09/01 07:18:24;;;;;;;;;;;;;;;17.44;73.81;102137.81;4949734;28;19933;-61
2022/09/01 07:21:10;;;;;;;;;;;;;;;17.48;73.99;102139.97;4946319;28;19926;-62
2022/09/01 07:24:00;;;;;;;;;;;;;;;17.58;72.25;102131.88;4953871;28;19942;-60
2022/09/01 07:26:50;;;;;;;;;;;;;;;17.65;71.42;102129.44;4937078;28;19938;-61
2022/09/01 07:29:20;;;;;;;;;;;;;;;17.74;70.68;102141.75;4956980;28;19956;-62
2022/09/01 07:31:46;;;;;;;;;;;;;;;17.78;70.99;102141.25;4960367;28;19935;-62
2022/09/01 07:34:15;;;;;;;;;;;;;;;17.84;71.92;102136.28;4945546;28;20478;-62
2022/09/01 07:37:02;;;;;;;;;;;;;;;17.83;73.48;102138.09;4953947;28;19926;-62
2022/09/01 07:39:48;;;;;;;;;;;;;;;17.84;73.53;102141.59;4940584;28;20294;-62
2022/09/01 07:42:17;;;;;;;;;;;;;;;17.81;72.96;102141.91;4949742;28;19934;-62
2022/09/01 07:45:08;;;;;;;;;;;;;;;17.82;72.17;102136.44;4945671;28;19926;-62
2022/09/01 07:47:52;;;;;;;;;;;;;;;17.86;72.26;102140.47;4949738;28;19938;-62
2022/09/01 07:50:19;;;;;;;;;;;;;;;17.93;72.62;102140.63;4942524;28;19934;-61
2022/09/01 07:53:07;;;;;;;;;;;;;;;18.03;73.64;102137.84;4946380;28;20433;-62
2022/09/01 07:55:33;;;;;;;;;;;;;;;18.10;73.56;102139.66;4944656;28;19972;-62
2022/09/01 07:57:59;;;;;;;;;;;;;;;18.20;72.60;102136.88;4952442;28;19930;-62
2022/09/01 08:00:27;;;;;;;;;;;;;;;18.29;71.44;102140.38;4951826;28;19926;-62
2022/09/01 08:02:56;;;;;;;;;;;;;;;18.41;71.02;102136.38;4959920;28;20142;-61
2022/09/01 08:05:25;;;;;;;;;;;;;;;18.55;71.05;102130.38;4953194;28;19934;-62
2022/09/01 08:07:52;;;;;;;;;;;;;;;18.68;71.77;102132.53;4948998;28;19941;-62
2022/09/01 08:10:19;;;;;;;;;;;;;;;18.87;69.58;102130.53;4948749;28;19953;-62
2022/09/01 08:12:46;;;;;;;;;;;;;;;19.08;69.12;102122.84;4944804;28;19934;-62
2022/09/01 08:15:22;;;;;;;;;;;;;;;19.31;68.35;102136.25;4952747;28;19973;-62
2022/09/01 08:18:08;;;;;;;;;;;;;;;19.63;66.79;102134.41;4939341;28;19927;-62
2022/09/01 08:20:38;;;;;;;;;;;;;;;19.88;65.90;102131.66;4948972;28;19945;-62
2022/09/01 08:23:05;;;;;;;;;;;;;;;20.09;65.52;102139.84;4952958;28;20486;-62
2022/09/01 08:25:33;;;;;;;;;;;;;;;20.40;64.94;102122.94;4952513;28;19934;-62
2022/09/01 08:28:00;;;;;;;;;;;;;;;20.64;63.14;102135.25;4960026;28;19941;-62
2022/09/01 08:30:28;;;;;;;;;;;;;;;20.93;62.53;102136.28;4948870;28;19931;-61
2022/09/01 08:32:55;;;;;;;;;;;;;;;21.23;61.24;102133.59;4950977;28;19941;-62
2022/09/01 08:35:21;;;;;;;;;;;;;;;21.47;60.05;102129.84;4939863;28;19926;-62
2022/09/01 08:37:48;;;;;;;;;;;;;;;21.71;59.74;102128.69;4950737;28;19936;-63
2022/09/01 08:40:16;;;;;;;;;;;;;;;21.90;58.52;102128.06;4951020;28;20405;-63
2022/09/01 08:42:49;;;;;;;;;;;;;;;22.10;56.92;102128.25;4948047;28;19926;-64
2022/09/01 08:45:23;;;;;;;;;;;;;;;22.31;57.05;102132.00;4952872;28;20021;-64
2022/09/01 08:47:54;;;;;;;;;;;;;;;22.54;56.13;102130.91;4942477;28;19933;-63
2022/09/01 08:50:42;;;;;;;;;;;;;;;22.66;55.85;102124.84;4941551;28;19926;-62
2022/09/01 08:53:21;;;;;;;;;;;;;;;22.83;55.89;102130.72;4951607;28;19933;-62
2022/09/01 08:55:50;;;;;;;;;;;;;;;23.01;55.36;102127.53;4949243;28;20405;-62
2022/09/01 08:58:17;;;;;;;;;;;;;;;23.15;54.29;102115.09;4949909;28;19937;-62
2022/09/01 09:00:45;;;;;;;;;;;;;;;23.27;53.82;102118.03;4951914;28;19927;-62
2022/09/01 09:03:25;;;;;;;;;;;;;;;23.40;53.49;102112.69;4944743;28;20331;-62
2022/09/01 09:06:06;;;;;;;;;;;;;;;23.55;53.02;102109.88;4947268;28;19954;-62
2022/09/01 09:08:43;;;;;;;;;;;;;;;23.72;52.47;102106.81;4950942;28;19937;-62
2022/09/01 09:11:22;;;;;;;;;;;;;;;23.89;52.09;102097.41;4948687;28;20017;-63
2022/09/01 09:14:11;;;;;;;;;;;;;;;24.03;50.69;102107.13;4951249;28;19930;-62
2022/09/01 09:16:42;;;;;;;;;;;;;;;24.20;51.91;102099.47;4939180;28;19941;-62
2022/09/01 09:19:15;;;;;;;;;;;;;;;24.27;48.95;102105.69;4946358;28;19934;-62
2022/09/01 09:21:44;;;;;;;;;;;;;;;24.50;48.20;102101.72;4951473;28;19926;-61
2022/09/01 09:24:20;;;;;;;;;;;;;;;24.61;49.87;102095.75;4956099;28;20494;-62
2022/09/01 09:26:51;;;;;;;;;;;;;;;24.83;48.64;102093.66;4953474;28;20466;-63
2022/09/01 09:29:20;;;;;;;;;;;;;;;24.95;47.62;102093.84;4950058;28;20608;-62
2022/09/01 09:31:49;;;;;;;;;;;;;;;25.11;47.50;102087.19;4938274;28;20301;-62
2022/09/01 09:34:34;;;;;;;;;;;;;;;25.15;47.61;102087.53;4948292;28;20036;-61
2022/09/01 09:37:16;;;;;;;;;;;;;;;25.36;46.00;102081.91;4958984;28;20146;-62
2022/09/01 09:39:42;;;;;;;;;;;;;;;25.51;45.35;102078.13;4951900;28;19948;-63
2022/09/01 09:42:11;;;;;;;;;;;;;;;25.69;45.11;102077.38;4952228;28;19944;-62
2022/09/01 09:44:42;;;;;;;;;;;;;;;25.76;43.26;102068.25;4946395;28;19926;-62
2022/09/01 09:47:09;;;;;;;;;;;;;;;25.95;44.10;102069.16;4949053;28;20331;-62
2022/09/01 09:50:09;;;;;;;;;;;;;;;26.01;41.68;102065.59;4943573;28;20416;-62
2022/09/01 09:52:36;;;;;;;;;;;;;;;26.17;43.35;102066.09;4950986;28;20140;-62
2022/09/01 09:55:04;;;;;;;;;;;;;;;26.36;41.58;102058.88;4942891;28;19942;-64
2022/09/01 09:57:31;;;;;;;;;;;;;;;26.53;43.62;102054.56;4947701;28;19931;-62
2022/09/01 10:00:07;;;;;;;;;;;;;;;26.71;40.86;102055.63;4933069;28;20534;-62
2022/09/01 10:02:37;;;;;;;;;;;;;;;26.87;41.94;102052.31;4950097;28;20306;-63
2022/09/01 10:05:20;;;;;;;;;;;;;;;26.88;40.39;102054.00;4953576;28;19977;-63
2022/09/01 10:07:47;;;;;;;;;;;;;;;27.03;40.48;102048.19;4941982;28;20013;-63
2022/09/01 10:10:35;;;;;;;;;;;;;;;27.00;39.48;102046.78;4953195;28;19933;-62
2022/09/01 10:13:01;;;;;;;;;;;;;;;27.18;39.52;102048.63;4939742;28;19931;-62
2022/09/01 10:15:29;;;;;;;;;;;;;;;27.37;39.31;102056.69;4945549;28;19954;-63
2022/09/01 10:17:59;;;;;;;;;;;;;;;27.49;39.48;102052.16;4952624;28;19926;-63
2022/09/01 10:20:50;;;;;;;;;;;;;;;27.72;37.69;102045.19;4952374;28;19926;-62
2022/09/01 10:23:17;;;;;;;;;;;;;;;27.87;38.78;102048.25;4950028;28;19976;-63
2022/09/01 10:25:43;;;;;;;;;;;;;;;27.91;37.75;102041.38;4948332;28;19926;-63
2022/09/01 10:28:18;;;;;;;;;;;;;;;28.08;37.70;102051.47;4946756;28;20009;-62
2022/09/01 10:30:47;;;;;;;;;;;;;;;28.15;38.13;102044.91;4945980;28;19934;-63
2022/09/01 10:33:15;;;;;;;;;;;;;;;28.35;38.70;102047.25;4946581;28;20442;-63
2022/09/01 10:35:48;;;;;;;;;;;;;;;28.52;39.57;102041.13;4952229;28;19937;-63
2022/09/01 10:38:17;;;;;;;;;;;;;;;28.66;36.88;102036.28;4951932;28;19926;-63
2022/09/01 10:40:47;;;;;;;;;;;;;;;28.65;37.72;102034.66;4945638;28;19926;-63
2022/09/01 10:43:26;;;;;;;;;;;;;;;28.79;36.78;102041.44;4945908;28;20837;-63
2022/09/01 10:45:53;;;;;;;;;;;;;;;28.94;37.51;102038.22;4945359;28;20013;-63
2022/09/01 10:48:32;;;;;;;;;;;;;;;29.07;37.39;102037.94;4953083;28;20619;-63
2022/09/01 10:51:11;;;;;;;;;;;;;;;29.18;36.46;102031.69;4955083;28;19930;-63
2022/09/01 10:53:47;;;;;;;;;;;;;;;29.32;36.60;102034.91;4950959;28;19926;-64
2022/09/01 10:56:19;;;;;;;;;;;;;;;29.44;35.98;102015.94;4947702;28;19930;-64
2022/09/01 10:59:23;;;;;;;;;;;;;;;29.51;38.23;102016.59;4947391;28;19930;-63
2022/09/01 11:02:16;;;;;;;;;;;;;;;29.73;37.85;102018.59;4955987;28;19926;-62
2022/09/01 11:05:03;;;;;;;;;;;;;;;29.87;35.30;102009.06;4958750;28;19933;-63
2022/09/01 11:07:34;;;;;;;;;;;;;;;29.83;35.50;102021.44;4960482;28;20430;-64
2022/09/01 11:10:32;;;;;;;;;;;;;;;29.89;35.86;102011.53;4943195;28;19934;-63
2022/09/01 11:13:23;;;;;;;;;;;;;;;30.03;35.67;102018.25;4952378;28;20458;-63
2022/09/01 11:15:49;;;;;;;;;;;;;;;29.98;35.66;102014.66;4951238;28;20007;-63
2022/09/01 11:18:28;;;;;;;;;;;;;;;30.06;37.07;102017.72;4949432;28;19926;-64
2022/09/01 11:20:54;;;;;;;;;;;;;;;30.12;36.18;102007.81;4947862;28;19941;-63
2022/09/01 11:23:24;;;;;;;;;;;;;;;30.11;36.28;102015.13;4953918;28;19932;-64
2022/09/01 11:25:54;;;;;;;;;;;;;;;30.17;35.67;102005.19;4951075;28;20355;-63
2022/09/01 11:28:41;;;;;;;;;;;;;;;30.40;34.97;102006.03;4950867;28;19946;-63
2022/09/01 11:31:08;;;;;;;;;;;;;;;30.43;35.29;102003.66;4958705;28;19930;-64
2022/09/01 11:33:53;;;;;;;;;;;;;;;30.51;35.18;102005.09;4955619;28;19937;-63
2022/09/01 11:36:25;;;;;;;;;;;;;;;30.52;33.99;102001.31;4948345;28;20391;-62
2022/09/01 11:38:53;;;;;;;;;;;;;;;30.74;35.38;101996.72;4939318;28;19930;-63
2022/09/01 11:41:25;;;;;;;;;;;;;;;30.88;37.81;101999.03;4949777;28;19931;-63
2022/09/01 11:43:53;;;;;;;;;;;;;;;30.82;34.77;101997.34;4945298;28;19930;-63
2022/09/01 11:46:28;;;;;;;;;;;;;;;31.00;39.29;101986.16;4954203;28;20849;-63
2022/09/01 11:48:55;;;;;;;;;;;;;;;30.93;34.85;101991.81;4954853;28;19934;-63
2022/09/01 11:51:21;;;;;;;;;;;;;;;31.02;35.91;101991.34;4953073;28;19930;-63
2022/09/01 11:53:49;;;;;;;;;;;;;;;31.18;35.25;101987.69;4955217;28;19952;-64
2022/09/01 11:56:18;;;;;;;;;;;;;;;31.25;34.86;101985.59;4943533;28;19926;-63
2022/09/01 11:58:45;;;;;;;;;;;;;;;31.28;35.22;101976.94;4947885;28;20418;-63
2022/09/01 12:01:11;;;;;;;;;;;;;;;31.34;37.24;101983.22;4944873;28;20315;-63
2022/09/01 12:03:38;;;;;;;;;;;;;;;31.29;34.85;101985.91;4955014;28;19937;-64
2022/09/01 12:06:06;;;;;;;;;;;;;;;31.27;33.92;101974.50;4941644;28;20021;-64
2022/09/01 12:08:34;;;;;;;;;;;;;;;31.33;34.22;101973.47;4959575;28;19930;-63
2022/09/01 12:11:05;;;;;;;;;;;;;;;31.30;33.48;101966.69;4953618;28;19931;-61
2022/09/01 12:13:32;;;;;;;;;;;;;;;31.36;34.42;101970.22;4946274;28;19931;-63
2022/09/01 12:16:04;;;;;;;;;;;;;;;31.40;34.76;101974.06;4950673;28;19930;-64
2022/09/01 12:18:46;;;;;;;;;;;;;;;31.52;35.27;101969.31;4938520;28;19934;-63
2022/09/01 12:21:21;;;;;;;;;;;;;;;31.50;34.14;101970.63;4946873;28;20321;-64
2022/09/01 12:23:48;;;;;;;;;;;;;;;31.51;34.96;101964.16;4941566;28;20383;-64
2022/09/01 12:26:16;;;;;;;;;;;;;;;31.42;34.41;101957.53;4953480;28;19960;-65
2022/09/01 12:28:43;;;;;;;;;;;;;;;31.35;34.72;101965.91;4946702;28;19937;-64
2022/09/01 12:31:13;;;;;;;;;;;;;;;31.43;34.02;101961.88;4943228;28;20449;-63
2022/09/01 12:33:41;;;;;;;;;;;;;;;31.56;33.83;101964.19;4953932;28;19956;-64
2022/09/01 12:36:15;;;;;;;;;;;;;;;31.59;33.99;101963.66;4947042;28;19937;-61
2022/09/01 12:38:42;;;;;;;;;;;;;;;31.67;34.32;101962.34;4949979;28;20693;-61
2022/09/01 12:41:22;;;;;;;;;;;;;;;31.72;34.28;101959.69;4948841;28;19934;-63
2022/09/01 12:43:53;;;;;;;;;;;;;;;31.83;34.37;101953.22;4950444;28;19934;-64
2022/09/01 12:46:42;;;;;;;;;;;;;;;31.99;33.68;101956.88;4945057;28;20036;-64
2022/09/01 12:49:15;;;;;;;;;;;;;;;32.03;34.41;101955.28;4948535;28;19950;-64
2022/09/01 12:51:41;;;;;;;;;;;;;;;31.97;33.61;101950.03;4949694;28;19931;-64
2022/09/01 12:54:09;;;;;;;;;;;;;;;32.19;34.63;101952.66;4955990;28;19942;-63
2022/09/01 12:56:38;;;;;;;;;;;;;;;32.33;33.92;101940.22;4954888;28;19972;-63
2022/09/01 12:59:09;;;;;;;;;;;;;;;32.33;32.91;101942.13;4937524;28;20394;-63